KSAN/SAN METAR and TAF weather

Enter ICAO airport designator
Station Type Date Time Source
KSAN METAR 2022/06/27 18:51 UTC NOAA

KSAN 271851Z 31008KT 10SM FEW008 FEW050 SCT200 22/17 A3001 RMK AO2 SLP163 T02220167


Station Type Date Time Source
KSAN Decoded METAR 2022/06/27 18:51 UTC NOAA

SAN DIEGO INTERNATIONAL \LINDBERGH FLD, CA, United States (KSAN) 32-44N 117-11W 12M
Jun 27, 2022 - 02:51 PM EDT / 2022.06.27 1851 UTC
Wind: from the NW (310 degrees) at 9 MPH (8 KT):0
Visibility: 10 mile(s):0
Sky conditions: partly cloudy
Temperature: 72.0 F (22.2 C)
Dew Point: 62.1 F (16.7 C)
Relative Humidity: 71%
Pressure (altimeter): 30.01 in. Hg (1016 hPa)
ob: KSAN 271851Z 31008KT 10SM FEW008 FEW050 SCT200 22/17 A3001 RMK AO2 SLP163 T02220167
cycle: 19

Station Type Date Time Source
KSAN TAF 2022/06/27 18:34 UTC NOAA

TAF KSAN 271731Z 2718/2824 28010KT P6SM FEW008 FEW150
FM280200 VRB04KT P6SM FEW008 SCT150
FM281000 VRB04KT P6SM BKN007
TEMPO 2811/2815 3SM BR OVC005
FM281600 VRB04KT P6SM SCT009
FM281800 23009KT P6SM FEW009 FEW150

Example: see airport list